Алферовский

Карта отелей и гостиниц, располагающихся рядом с аэропортом Алферовский :

Алферовский Воронежская область 51° 8' 14.64" N, 41° 40' 34.68" E
Алферовский Воронежская область 51° 8' 14.64" N, 41° 40' 34.68" E
Код аэродрома ИКАО
HA05
Код аэродрома RU
ХА05
Координаты
N51.13740° E041.67630°
Превышение над уровнем моря
110
Основная полоса
Курс магнитный
Длина основной ВПП
15
Ширина основной ВПП
15
Покрытие основной ВПП
Твёрдое (металл)
Освещение ВПП
По запросу
Тип: 
Вертодром
Класс аэродрома: 
Принадлежность: 
МО
Статус: 
Действующий
Сайт: 
E-mail аэродрома: 
Страна: 
Россия
Регион: 
Воронежская область
Город: 
Дополнительная информация: 
Оператор: МО РФ, в/ч 26285.

Найти трансфер

С помощью этой формы Вы можете найти трансфер из аэропорта Алферовский в город, аэропорт или вокзал:

Карта места

Javascript is required to view this map.

Погода в аэропортах:

Авиационная погода в Курске

Погода METAR: 
UUOK 171830Z 10007MPS 9999 -RA NSC 09/07 Q1015 R12/290050 NOSIG RMK QFE743/0991
Время наблюдения
2021-09-17T18:30:00Z
Температура C
9.0
Точка росы
7.0
Направление ветра
100
Скорость ветра (узлы)
14
Метео видимость
6.21
Явления погоды
-RA
Условия полета
VFR
Аэропорт подробнее: 

Авиационная погода в Челябинске

Регион: 
Погода METAR: 
USCC 171830Z 28003MPS 9999 -SHRA BKN026CB 07/07 Q1007 R27/290050 TEMPO 2000 SHRA RMK QFE735
Время наблюдения
2021-09-17T18:30:00Z
Температура C
7.0
Точка росы
7.0
Направление ветра
280
Скорость ветра (узлы)
6
Метео видимость
6.21
Явления погоды
-SHRA
Условия полета
MVFR
Аэропорт подробнее: 

Авиационная погода в Емельяново

Регион: 
Погода METAR: 
UNKL 171830Z 10002MPS 0150 0100S R29/0550U FG SCT001 08/08 Q1005 R29/CLRD65 NOSIG RMK QBB050 QFE729
Время наблюдения
2021-09-17T18:30:00Z
Температура C
8.0
Точка росы
8.0
Направление ветра
100
Скорость ветра (узлы)
4
Метео видимость
0.09
Явления погоды
FG
Условия полета
LIFR
Аэропорт подробнее: 

Авиационная погода в Толмачево

Регион: 
Погода METAR: 
UNNT 171830Z 31005MPS 9999 -SHRA SCT010 BKN051CB 10/10 Q0997 R25/290155 R34/////// NOSIG RMK QFE738/0984
Время наблюдения
2021-09-17T18:30:00Z
Температура C
10.0
Точка росы
10.0
Направление ветра
310
Скорость ветра (узлы)
10
Метео видимость
6.21
Явления погоды
-SHRA
Условия полета
VFR
Аэропорт подробнее: